Time;durP1;ratioP1;P1;durP2;ratioP2;P2;SDS_P1;SDS_P2;PMS_P1;PMS_P2;Temp;Humidity;BMP_temperature;BMP_pressure;BME280_temperature;BME280_humidity;BME280_pressure;Samples;Min_cycle;Max_cycle;Signal;HPM_P1;HPM_P2
2021/03/22 06:00:32;;;;;;;;;;;;;;;;;;5125636;27;20408;-63
2021/03/22 06:03:06;;;;;;;0.00;0.00;;;;;;;;;;5129141;28;19911;-64
2021/03/22 06:05:35;;;;;;;0.00;0.00;;;;;;;;;;5126197;28;20023;-64
2021/03/22 06:08:20;;;;;;;0.00;0.00;;;;;;;;;;5125243;27;20473;-63
2021/03/22 06:10:51;;;;;;;0.38;0.38;;;;;;;;;;5125165;27;20085;-64
2021/03/22 06:13:18;;;;;;;0.00;0.00;;;;;;;;;;5125140;27;20020;-63
2021/03/22 06:15:49;;;;;;;0.00;0.00;;;;;;;;;;5125499;27;20022;-63
2021/03/22 06:18:22;;;;;;;0.00;0.00;;;;;;;;;;5127720;27;20085;-64
2021/03/22 06:20:51;;;;;;;0.00;0.00;;;;;;;;;;5127134;28;20055;-63
2021/03/22 06:23:40;;;;;;;0.00;0.00;;;;;;;;;;5124544;27;20019;-63
2021/03/22 06:26:18;;;;;;;0.00;0.00;;;;;;;;;;5117807;28;20084;-63
2021/03/22 06:28:49;;;;;;;0.00;0.00;;;;;;;;;;5125062;27;20046;-64
2021/03/22 06:31:19;;;;;;;0.00;0.00;;;;;;;;;;5125163;27;20122;-62
2021/03/22 06:33:46;;;;;;;0.00;0.00;;;;;;;;;;5126215;27;20808;-63
2021/03/22 06:36:14;;;;;;;0.00;0.00;;;;;;;;;;5124635;27;20039;-64
2021/03/22 06:38:43;;;;;;;25.35;7.03;;;;;;;;;;5127837;28;20024;-64
2021/03/22 06:41:28;;;;;;;0.30;0.30;;;;;;;;;;5125017;27;20058;-64
2021/03/22 06:43:55;;;;;;;0.05;0.05;;;;;;;;;;5123667;27;20397;-64
2021/03/22 06:46:21;;;;;;;0.10;0.10;;;;;;;;;;5124634;27;20020;-64
2021/03/22 06:48:58;;;;;;;0.00;0.00;;;;;;;;;;5124628;27;20031;-63
2021/03/22 06:51:24;;;;;;;0.00;0.00;;;;;;;;;;5123779;28;20036;-65
2021/03/22 06:53:59;;;;;;;0.05;0.05;;;;;;;;;;5126854;28;20015;-64
2021/03/22 06:56:25;;;;;;;3.20;1.58;;;;;;;;;;5123487;27;20027;-63
2021/03/22 06:59:09;;;;;;;1.67;1.58;;;;;;;;;;5123522;27;20057;-64
2021/03/22 07:01:35;;;;;;;0.00;0.00;;;;;;;;;;5108987;27;20496;-63
2021/03/22 07:04:20;;;;;;;0.10;0.10;;;;;;;;;;5105351;28;20028;-63
2021/03/22 07:07:05;;;;;;;0.05;0.05;;;;;;;;;;5096324;28;20470;-64
2021/03/22 07:09:33;;;;;;;0.10;0.10;;;;;;;;;;5094440;28;20032;-64
2021/03/22 07:11:59;;;;;;;0.95;0.95;;;;;;;;;;5108851;28;20031;-62
2021/03/22 07:14:26;;;;;;;0.63;0.63;;;;;;;;;;5110513;28;20036;-63
2021/03/22 07:17:04;;;;;;;0.20;0.20;;;;;;;;;;5109008;27;20023;-63
2021/03/22 07:19:32;;;;;;;0.00;0.00;;;;;;;;;;5110285;27;20039;-64
2021/03/22 07:21:59;;;;;;;2.95;2.65;;;;;;;;;;5110172;28;20477;-62
2021/03/22 07:24:25;;;;;;;0.00;0.00;;;;;;;;;;5111685;28;20028;-63
2021/03/22 07:27:04;;;;;;;0.20;0.20;;;;;;;;;;5112483;28;20040;-63
2021/03/22 07:29:49;;;;;;;0.10;0.10;;;;;;;;;;5111322;28;20392;-63
2021/03/22 07:32:28;;;;;;;4.80;0.93;;;;;;;;;;5109736;28;20550;-63
2021/03/22 07:35:18;;;;;;;0.10;0.10;;;;;;;;;;5108906;28;20790;-63
2021/03/22 07:37:53;;;;;;;0.10;0.10;;;;;;;;;;5069742;28;20036;-64
2021/03/22 07:40:27;;;;;;;0.00;0.00;;;;;;;;;;5069658;28;20036;-63
2021/03/22 07:43:08;;;;;;;0.00;0.00;;;;;;;;;;5069816;28;20040;-64
2021/03/22 07:45:52;;;;;;;0.13;0.13;;;;;;;;;;5069584;28;20036;-63
2021/03/22 07:48:39;;;;;;;0.40;0.40;;;;;;;;;;5069935;28;20468;-63
2021/03/22 07:51:08;;;;;;;0.75;0.60;;;;;;;;;;5056498;28;20402;-64
2021/03/22 07:53:48;;;;;;;0.65;0.65;;;;;;;;;;5053034;28;20032;-62
2021/03/22 07:56:14;;;;;;;0.22;0.22;;;;;;;;;;5069443;28;20612;-62
2021/03/22 07:58:58;;;;;;;0.03;0.03;;;;;;;;;;5069136;28;20471;-63
2021/03/22 08:01:36;;;;;;;0.00;0.00;;;;;;;;;;5069057;28;20047;-63
2021/03/22 08:04:18;;;;;;;0.57;0.57;;;;;;;;;;5070063;28;20037;-62
2021/03/22 08:06:50;;;;;;;1.08;0.82;;;;;;;;;;5069915;28;20036;-63
2021/03/22 08:09:16;;;;;;;0.55;0.55;;;;;;;;;;5069029;28;20052;-63
2021/03/22 08:11:45;;;;;;;0.10;0.10;;;;;;;;;;5068077;28;20166;-61
2021/03/22 08:14:27;;;;;;;0.10;0.10;;;;;;;;;;5075172;28;20045;-63
2021/03/22 08:16:56;;;;;;;0.10;0.10;;;;;;;;;;5103948;28;20035;-63
2021/03/22 08:19:26;;;;;;;2.78;0.90;;;;;;;;;;5109774;27;20557;-64
2021/03/22 08:22:11;;;;;;;0.10;0.10;;;;;;;;;;5109789;28;20212;-64
2021/03/22 08:24:51;;;;;;;0.10;0.10;;;;;;;;;;5094038;28;20102;-63
2021/03/22 08:27:19;;;;;;;2.25;0.93;;;;;;;;;;5111810;28;20117;-64
2021/03/22 08:29:54;;;;;;;0.10;0.10;;;;;;;;;;5110959;28;20142;-64
2021/03/22 08:32:35;;;;;;;0.10;0.10;;;;;;;;;;5108120;28;20382;-64
2021/03/22 08:35:12;;;;;;;0.20;0.20;;;;;;;;;;5109100;28;20024;-62
2021/03/22 08:37:45;;;;;;;1.65;1.08;;;;;;;;;;5107513;28;20031;-64
2021/03/22 08:40:15;;;;;;;0.10;0.10;;;;;;;;;;5108318;28;20093;-64
2021/03/22 08:42:45;;;;;;;0.40;0.40;;;;;;;;;;5108512;28;20016;-63
2021/03/22 08:45:33;;;;;;;0.10;0.10;;;;;;;;;;5110570;28;20020;-63
2021/03/22 08:48:10;;;;;;;1.30;0.80;;;;;;;;;;5108370;28;20031;-64
2021/03/22 08:50:37;;;;;;;0.52;0.52;;;;;;;;;;5111754;28;20031;-64
2021/03/22 08:53:03;;;;;;;1.30;1.30;;;;;;;;;;5109181;28;20028;-63
2021/03/22 08:55:47;;;;;;;3.50;1.85;;;;;;;;;;5108774;28;20024;-63
2021/03/22 08:58:43;;;;;;;2.53;2.33;;;;;;;;;;5108335;28;20378;-63
2021/03/22 09:01:10;;;;;;;0.28;0.28;;;;;;;;;;5099631;28;20051;-64
2021/03/22 09:03:36;;;;;;;0.10;0.10;;;;;;;;;;5108723;28;20084;-64
2021/03/22 09:06:17;;;;;;;0.10;0.10;;;;;;;;;;5112464;28;20031;-64
2021/03/22 09:08:55;;;;;;;0.10;0.10;;;;;;;;;;5109939;28;20118;-62
2021/03/22 09:11:30;;;;;;;0.10;0.10;;;;;;;;;;5108343;28;20034;-63
2021/03/22 09:14:01;;;;;;;1.17;1.17;;;;;;;;;;5108063;28;20489;-64
2021/03/22 09:16:41;;;;;;;0.45;0.45;;;;;;;;;;5108546;28;20031;-64
2021/03/22 09:19:10;;;;;;;0.10;0.10;;;;;;;;;;5107130;28;20050;-63
2021/03/22 09:22:13;;;;;;;0.10;0.10;;;;;;;;;;5108083;28;20062;-64
2021/03/22 09:24:45;;;;;;;0.17;0.17;;;;;;;;;;5092327;28;20095;-64
2021/03/22 09:27:20;;;;;;;0.10;0.10;;;;;;;;;;5110928;28;20465;-63
2021/03/22 09:29:48;;;;;;;2.17;1.98;;;;;;;;;;5109833;28;20167;-63
2021/03/22 09:32:31;;;;;;;0.10;0.10;;;;;;;;;;5108747;28;20030;-64
2021/03/22 09:35:15;;;;;;;0.15;0.15;;;;;;;;;;5108187;28;20476;-64
2021/03/22 09:37:54;;;;;;;0.32;0.30;;;;;;;;;;5108436;28;20024;-64
2021/03/22 09:40:21;;;;;;;0.15;0.15;;;;;;;;;;5108207;28;20040;-64
2021/03/22 09:43:05;;;;;;;0.43;0.40;;;;;;;;;;5108253;28;20024;-63
2021/03/22 09:45:32;;;;;;;1.55;0.52;;;;;;;;;;5109121;28;20045;-62
2021/03/22 09:48:16;;;;;;;0.17;0.17;;;;;;;;;;5111787;28;20032;-61
2021/03/22 09:50:46;;;;;;;0.10;0.10;;;;;;;;;;5111544;28;20038;-64
2021/03/22 09:53:12;;;;;;;0.10;0.10;;;;;;;;;;5108419;28;20030;-62
2021/03/22 09:55:43;;;;;;;1.13;0.52;;;;;;;;;;5108286;28;20050;-64
2021/03/22 09:58:18;;;;;;;1.20;1.20;;;;;;;;;;5107342;28;20036;-63
2021/03/22 10:00:55;;;;;;;0.30;0.30;;;;;;;;;;5108089;28;20028;-63
2021/03/22 10:03:27;;;;;;;0.40;0.40;;;;;;;;;;5106680;28;20073;-60
2021/03/22 10:05:55;;;;;;;0.47;0.47;;;;;;;;;;5108532;28;20485;-62
2021/03/22 10:08:24;;;;;;;0.10;0.10;;;;;;;;;;5106141;28;20020;-63
2021/03/22 10:10:55;;;;;;;2.30;1.67;;;;;;;;;;5105670;28;20055;-64
2021/03/22 10:13:32;;;;;;;5.35;2.38;;;;;;;;;;5105467;28;20148;-63
2021/03/22 10:16:08;;;;;;;0.10;0.10;;;;;;;;;;5105373;28;20019;-61
2021/03/22 10:18:47;;;;;;;0.20;0.20;;;;;;;;;;5095354;28;20555;-63
2021/03/22 10:21:15;;;;;;;3.47;1.92;;;;;;;;;;5108274;28;20035;-62
2021/03/22 10:23:51;;;;;;;0.52;0.45;;;;;;;;;;5106729;28;20651;-63
2021/03/22 10:26:20;;;;;;;3.97;2.00;;;;;;;;;;5105558;28;20032;-62
2021/03/22 10:28:46;;;;;;;1.00;0.35;;;;;;;;;;5104967;28;20027;-63
2021/03/22 10:31:19;;;;;;;2.45;2.35;;;;;;;;;;5103716;28;20120;-63
2021/03/22 10:33:46;;;;;;;0.63;0.63;;;;;;;;;;5103901;28;20110;-62
2021/03/22 10:36:22;;;;;;;1.60;1.08;;;;;;;;;;5110106;28;20027;-62
2021/03/22 10:38:50;;;;;;;0.57;0.43;;;;;;;;;;5110804;28;20027;-62
2021/03/22 10:41:35;;;;;;;0.50;0.47;;;;;;;;;;5108980;28;20413;-61
2021/03/22 10:44:22;;;;;;;0.37;0.37;;;;;;;;;;5109364;28;20441;-63
2021/03/22 10:47:00;;;;;;;0.35;0.32;;;;;;;;;;5109091;28;20477;-63
2021/03/22 10:49:27;;;;;;;0.10;0.10;;;;;;;;;;5109035;28;20032;-63
2021/03/22 10:51:56;;;;;;;0.10;0.10;;;;;;;;;;5109361;28;20073;-63
2021/03/22 10:54:42;;;;;;;0.10;0.10;;;;;;;;;;5111224;27;20035;-63
2021/03/22 10:57:35;;;;;;;0.22;0.15;;;;;;;;;;5108524;28;20020;-62
2021/03/22 11:00:05;;;;;;;0.10;0.10;;;;;;;;;;5106137;28;20052;-63
2021/03/22 11:02:37;;;;;;;0.85;0.85;;;;;;;;;;5109476;28;20115;-62
2021/03/22 11:05:08;;;;;;;1.13;1.02;;;;;;;;;;5110440;28;20468;-63
2021/03/22 11:07:36;;;;;;;0.80;0.80;;;;;;;;;;5111161;28;20016;-62
2021/03/22 11:10:05;;;;;;;1.05;0.98;;;;;;;;;;5110387;28;20023;-63
2021/03/22 11:12:31;;;;;;;0.30;0.30;;;;;;;;;;5111369;28;20080;-63
2021/03/22 11:15:09;;;;;;;0.10;0.10;;;;;;;;;;5114185;28;20031;-62
2021/03/22 11:17:36;;;;;;;0.30;0.30;;;;;;;;;;5111677;28;20031;-62
2021/03/22 11:20:03;;;;;;;0.10;0.10;;;;;;;;;;5110445;28;20031;-63
2021/03/22 11:22:31;;;;;;;0.10;0.10;;;;;;;;;;5110670;28;20027;-63
2021/03/22 11:24:58;;;;;;;1.52;1.00;;;;;;;;;;5110372;28;20027;-62
2021/03/22 11:27:25;;;;;;;0.10;0.10;;;;;;;;;;5111983;28;20043;-62
2021/03/22 11:30:03;;;;;;;4.30;0.90;;;;;;;;;;5113150;28;20023;-63
2021/03/22 11:32:31;;;;;;;0.63;0.63;;;;;;;;;;5110630;28;20100;-63
2021/03/22 11:34:57;;;;;;;1.95;0.93;;;;;;;;;;5110737;28;20556;-63
2021/03/22 11:37:30;;;;;;;2.80;2.13;;;;;;;;;;5110084;27;20070;-63
2021/03/22 11:40:04;;;;;;;0.10;0.10;;;;;;;;;;5109303;28;20046;-62
2021/03/22 11:42:32;;;;;;;0.47;0.47;;;;;;;;;;5110803;27;20032;-62
2021/03/22 11:44:59;;;;;;;2.92;0.95;;;;;;;;;;5113199;28;20031;-62
2021/03/22 11:47:28;;;;;;;1.25;1.20;;;;;;;;;;5110341;28;20103;-63
2021/03/22 11:49:55;;;;;;;1.02;0.80;;;;;;;;;;5110502;28;20419;-63
2021/03/22 11:52:23;;;;;;;0.93;0.65;;;;;;;;;;5110222;28;20023;-62
2021/03/22 11:54:51;;;;;;;1.98;1.88;;;;;;;;;;5109672;28;20511;-63
2021/03/22 11:57:22;;;;;;;1.95;1.17;;;;;;;;;;5112209;28;20016;-62
2021/03/22 11:59:53;;;;;;;1.25;1.05;;;;;;;;;;5111880;28;20086;-62
2021/03/22 12:02:40;;;;;;;0.45;0.45;;;;;;;;;;5110208;28;20032;-63
2021/03/22 12:05:24;;;;;;;0.45;0.45;;;;;;;;;;5110234;28;20106;-62
2021/03/22 12:07:50;;;;;;;0.88;0.88;;;;;;;;;;5109717;28;20497;-62
2021/03/22 12:10:22;;;;;;;0.15;0.15;;;;;;;;;;5109679;28;20020;-62
2021/03/22 12:12:48;;;;;;;0.38;0.38;;;;;;;;;;5109588;28;20024;-62
2021/03/22 12:15:16;;;;;;;0.17;0.17;;;;;;;;;;5111846;28;20434;-62
2021/03/22 12:17:42;;;;;;;1.75;1.00;;;;;;;;;;5108771;28;20480;-63
2021/03/22 12:20:13;;;;;;;1.85;1.58;;;;;;;;;;5109340;28;20107;-63
2021/03/22 12:22:39;;;;;;;4.95;2.50;;;;;;;;;;5108775;27;20031;-62
2021/03/22 12:25:06;;;;;;;0.77;0.77;;;;;;;;;;5109830;28;20416;-62
2021/03/22 12:27:32;;;;;;;0.95;0.52;;;;;;;;;;5109826;28;20470;-63
2021/03/22 12:29:58;;;;;;;0.55;0.55;;;;;;;;;;5112738;28;20031;-68
2021/03/22 12:32:25;;;;;;;3.83;1.38;;;;;;;;;;5109198;28;20028;-65
2021/03/22 12:34:52;;;;;;;0.40;0.40;;;;;;;;;;5109136;28;20019;-68
2021/03/22 12:37:26;;;;;;;0.20;0.20;;;;;;;;;;5108683;28;20057;-67
2021/03/22 12:39:52;;;;;;;3.60;3.13;;;;;;;;;;5109256;28;20047;-67
2021/03/22 12:42:19;;;;;;;0.63;0.30;;;;;;;;;;5111748;28;20024;-68
2021/03/22 12:44:45;;;;;;;0.47;0.47;;;;;;;;;;5110745;28;20024;-67
2021/03/22 12:47:16;;;;;;;3.40;2.05;;;;;;;;;;5108890;28;20024;-67
2021/03/22 12:49:42;;;;;;;0.10;0.10;;;;;;;;;;5107352;28;20038;-68
2021/03/22 12:52:08;;;;;;;3.83;2.22;;;;;;;;;;5107867;28;20042;-68
2021/03/22 12:54:34;;;;;;;0.10;0.10;;;;;;;;;;5108724;28;20054;-68
2021/03/22 12:57:00;;;;;;;0.10;0.10;;;;;;;;;;5107372;28;20024;-68
2021/03/22 12:59:32;;;;;;;0.20;0.20;;;;;;;;;;5108236;28;20119;-68
2021/03/22 13:01:59;;;;;;;1.73;1.40;;;;;;;;;;5108854;28;20030;-66
2021/03/22 13:04:27;;;;;;;2.63;1.55;;;;;;;;;;5109036;28;20024;-68
2021/03/22 13:06:53;;;;;;;0.17;0.17;;;;;;;;;;5108764;28;20111;-67
2021/03/22 13:09:19;;;;;;;0.38;0.38;;;;;;;;;;5111384;28;20019;-67
2021/03/22 13:11:45;;;;;;;5.43;2.00;;;;;;;;;;5109407;28;20075;-67
2021/03/22 13:14:14;;;;;;;1.50;1.05;;;;;;;;;;5108468;28;20520;-68
2021/03/22 13:16:40;;;;;;;2.38;2.17;;;;;;;;;;5108426;28;20028;-68
2021/03/22 13:19:06;;;;;;;10.55;3.25;;;;;;;;;;5108910;28;20091;-68
2021/03/22 13:21:33;;;;;;;1.30;1.25;;;;;;;;;;5092093;28;20377;-67
2021/03/22 13:23:59;;;;;;;1.20;1.17;;;;;;;;;;5111601;28;20027;-68
2021/03/22 13:26:27;;;;;;;0.40;0.40;;;;;;;;;;5108658;28;20392;-68
2021/03/22 13:28:56;;;;;;;0.13;0.13;;;;;;;;;;5108572;28;20020;-68
2021/03/22 13:31:22;;;;;;;5.97;1.70;;;;;;;;;;5108322;28;20056;-68
2021/03/22 13:33:49;;;;;;;0.25;0.25;;;;;;;;;;5108408;28;20028;-68
2021/03/22 13:36:17;;;;;;;0.20;0.20;;;;;;;;;;5110361;28;20031;-68
2021/03/22 13:38:43;;;;;;;1.75;0.73;;;;;;;;;;5109425;28;20121;-68
2021/03/22 13:41:27;;;;;;;2.08;1.95;;;;;;;;;;5108155;28;20024;-67
2021/03/22 13:43:55;;;;;;;0.73;0.73;;;;;;;;;;5107902;28;20112;-66
2021/03/22 13:46:21;;;;;;;0.52;0.50;;;;;;;;;;5108100;28;20089;-68
2021/03/22 13:48:48;;;;;;;2.97;2.13;;;;;;;;;;5107801;28;20063;-68
2021/03/22 13:51:15;;;;;;;2.47;2.28;;;;;;;;;;5110568;28;20494;-66
2021/03/22 13:53:41;;;;;;;1.55;1.05;;;;;;;;;;5109482;28;20047;-68
2021/03/22 13:56:07;;;;;;;1.23;1.15;;;;;;;;;;5107949;28;20020;-68
2021/03/22 13:58:34;;;;;;;0.20;0.20;;;;;;;;;;5106774;28;20046;-65
2021/03/22 14:01:00;;;;;;;0.10;0.10;;;;;;;;;;5107413;28;20042;-68
2021/03/22 14:03:26;;;;;;;1.13;0.70;;;;;;;;;;5108019;28;20529;-65
2021/03/22 14:05:56;;;;;;;0.35;0.35;;;;;;;;;;5109967;28;20051;-68
2021/03/22 14:08:23;;;;;;;0.20;0.20;;;;;;;;;;5107506;28;20031;-68
2021/03/22 14:10:49;;;;;;;1.23;0.98;;;;;;;;;;5110169;28;20399;-68
2021/03/22 14:13:15;;;;;;;1.02;0.65;;;;;;;;;;5111970;27;20035;-67
2021/03/22 14:15:43;;;;;;;3.60;2.70;;;;;;;;;;5111966;28;20012;-68
2021/03/22 14:18:10;;;;;;;0.10;0.10;;;;;;;;;;5113151;28;20032;-67
2021/03/22 14:20:37;;;;;;;0.32;0.30;;;;;;;;;;5109861;28;20028;-67
2021/03/22 14:23:07;;;;;;;1.00;0.85;;;;;;;;;;5108911;28;20130;-68
2021/03/22 14:25:33;;;;;;;0.38;0.38;;;;;;;;;;5106050;28;20024;-68
2021/03/22 14:28:00;;;;;;;1.20;0.30;;;;;;;;;;5109639;28;20072;-68
2021/03/22 14:30:28;;;;;;;3.95;2.17;;;;;;;;;;5109660;28;20039;-68
2021/03/22 14:32:55;;;;;;;5.47;2.40;;;;;;;;;;5112306;28;20046;-68
2021/03/22 14:35:22;;;;;;;0.38;0.38;;;;;;;;;;5109700;27;20019;-68
2021/03/22 14:37:49;;;;;;;1.33;0.88;;;;;;;;;;5109452;28;20110;-67
2021/03/22 14:40:15;;;;;;;3.50;1.75;;;;;;;;;;5105125;28;20038;-67
2021/03/22 14:42:41;;;;;;;2.17;1.10;;;;;;;;;;5109587;28;20547;-68
2021/03/22 14:45:08;;;;;;;0.43;0.43;;;;;;;;;;5112894;28;20038;-68
2021/03/22 14:47:34;;;;;;;0.10;0.10;;;;;;;;;;5110153;28;20031;-67
2021/03/22 14:50:01;;;;;;;0.28;0.28;;;;;;;;;;5109377;28;20053;-70
2021/03/22 14:52:27;;;;;;;0.20;0.20;;;;;;;;;;5109366;28;20393;-65
2021/03/22 14:54:53;;;;;;;0.10;0.10;;;;;;;;;;5109489;28;20107;-68
2021/03/22 14:57:20;;;;;;;1.15;0.93;;;;;;;;;;5111742;28;20023;-68
2021/03/22 14:59:46;;;;;;;1.35;0.85;;;;;;;;;;5111000;28;20048;-68
2021/03/22 15:02:12;;;;;;;5.55;2.67;;;;;;;;;;5108418;28;20080;-68
2021/03/22 15:04:38;;;;;;;1.00;1.00;;;;;;;;;;5111660;28;20012;-68
2021/03/22 15:07:05;;;;;;;1.38;0.90;;;;;;;;;;5109522;28;20107;-68
2021/03/22 15:09:31;;;;;;;2.40;2.10;;;;;;;;;;5109271;28;20480;-68
2021/03/22 15:11:57;;;;;;;0.32;0.32;;;;;;;;;;5112121;28;20157;-68
2021/03/22 15:14:24;;;;;;;0.55;0.55;;;;;;;;;;5108632;28;20484;-68
2021/03/22 15:16:50;;;;;;;2.25;1.73;;;;;;;;;;5108890;28;20023;-68
2021/03/22 15:19:16;;;;;;;3.40;1.80;;;;;;;;;;5109658;28;20058;-69
2021/03/22 15:21:42;;;;;;;3.22;2.40;;;;;;;;;;5106516;28;20020;-63
2021/03/22 15:24:09;;;;;;;0.70;0.70;;;;;;;;;;5112933;28;20157;-62
2021/03/22 15:26:35;;;;;;;0.38;0.38;;;;;;;;;;5105778;28;20028;-61
2021/03/22 15:29:01;;;;;;;2.13;1.20;;;;;;;;;;5110230;28;20023;-61
2021/03/22 15:31:27;;;;;;;4.22;2.50;;;;;;;;;;5111681;28;20027;-61
2021/03/22 15:33:55;;;;;;;0.10;0.10;;;;;;;;;;5111433;28;20027;-61
2021/03/22 15:36:22;;;;;;;5.30;1.23;;;;;;;;;;5112512;28;20024;-60
2021/03/22 15:38:48;;;;;;;0.43;0.40;;;;;;;;;;5101191;28;20040;-63
2021/03/22 15:41:16;;;;;;;0.68;0.68;;;;;;;;;;5109129;28;20076;-60
2021/03/22 15:43:42;;;;;;;6.75;3.25;;;;;;;;;;5109576;28;20020;-61
2021/03/22 15:46:10;;;;;;;1.33;1.23;;;;;;;;;;5110129;28;20034;-61
2021/03/22 15:48:36;;;;;;;2.08;1.48;;;;;;;;;;5110604;28;20483;-63
2021/03/22 15:51:03;;;;;;;4.78;3.30;;;;;;;;;;5103497;28;20028;-65
2021/03/22 15:53:29;;;;;;;9.27;3.95;;;;;;;;;;5106862;28;20023;-67
2021/03/22 15:55:55;;;;;;;5.68;1.58;;;;;;;;;;5109638;28;20023;-64
2021/03/22 15:58:21;;;;;;;0.85;0.85;;;;;;;;;;5108971;28;20039;-64
2021/03/22 16:00:48;;;;;;;0.90;0.88;;;;;;;;;;5107957;28;20161;-65
2021/03/22 16:03:15;;;;;;;0.15;0.15;;;;;;;;;;5103788;28;20088;-64
2021/03/22 16:05:42;;;;;;;0.63;0.63;;;;;;;;;;5102846;28;20106;-64
2021/03/22 16:08:09;;;;;;;3.40;2.28;;;;;;;;;;5111765;28;20038;-64
2021/03/22 16:10:38;;;;;;;0.65;0.57;;;;;;;;;;5106987;28;20031;-65
2021/03/22 16:13:04;;;;;;;2.20;2.00;;;;;;;;;;5104091;28;20035;-60
2021/03/22 16:15:32;;;;;;;0.80;0.80;;;;;;;;;;5109968;28;20024;-61
2021/03/22 16:17:58;;;;;;;1.75;1.65;;;;;;;;;;5112915;28;20020;-61
2021/03/22 16:20:27;;;;;;;1.45;1.25;;;;;;;;;;5108831;28;20054;-61
2021/03/22 16:22:54;;;;;;;0.20;0.20;;;;;;;;;;5108788;28;20081;-63
2021/03/22 16:25:28;;;;;;;1.23;0.98;;;;;;;;;;5107731;28;20114;-62
2021/03/22 16:27:57;;;;;;;1.80;0.50;;;;;;;;;;5106186;28;20081;-62
2021/03/22 16:30:24;;;;;;;0.75;0.75;;;;;;;;;;5110401;28;20034;-62
2021/03/22 16:32:51;;;;;;;1.17;0.73;;;;;;;;;;5110310;28;20031;-62
2021/03/22 16:35:18;;;;;;;2.25;1.42;;;;;;;;;;5109032;28;20016;-62
2021/03/22 16:37:48;;;;;;;1.08;1.08;;;;;;;;;;5108134;28;20028;-62
2021/03/22 16:40:15;;;;;;;4.55;1.55;;;;;;;;;;5110686;28;20485;-63
2021/03/22 16:42:41;;;;;;;1.70;1.60;;;;;;;;;;5109926;28;20027;-62
2021/03/22 16:45:09;;;;;;;2.33;0.90;;;;;;;;;;5111527;28;20032;-62
2021/03/22 16:47:35;;;;;;;2.97;2.60;;;;;;;;;;5104811;28;20107;-61
2021/03/22 16:50:01;;;;;;;0.63;0.30;;;;;;;;;;5104863;28;20148;-63
2021/03/22 16:52:27;;;;;;;2.45;1.52;;;;;;;;;;5102203;28;20096;-62
2021/03/22 16:54:54;;;;;;;0.63;0.63;;;;;;;;;;5107004;28;20074;-62
2021/03/22 16:57:20;;;;;;;1.40;1.30;;;;;;;;;;5110731;28;20099;-62
2021/03/22 16:59:46;;;;;;;2.88;1.83;;;;;;;;;;5102822;28;20576;-62
2021/03/22 17:02:12;;;;;;;3.10;2.00;;;;;;;;;;5098258;28;20028;-62
2021/03/22 17:04:38;;;;;;;0.73;0.68;;;;;;;;;;5105633;28;20027;-62
2021/03/22 17:07:05;;;;;;;0.25;0.25;;;;;;;;;;5106739;28;20027;-62
2021/03/22 17:09:32;;;;;;;1.73;1.60;;;;;;;;;;5107159;28;20044;-62
2021/03/22 17:11:58;;;;;;;7.22;3.03;;;;;;;;;;5108544;28;20056;-63
2021/03/22 17:14:25;;;;;;;2.38;1.95;;;;;;;;;;5105250;28;20028;-62
2021/03/22 17:16:54;;;;;;;2.30;1.90;;;;;;;;;;5104732;27;20024;-62
2021/03/22 17:19:21;;;;;;;2.65;1.55;;;;;;;;;;5098131;28;20030;-62
2021/03/22 17:21:48;;;;;;;3.95;1.40;;;;;;;;;;5106568;28;20016;-62
2021/03/22 17:24:14;;;;;;;0.40;0.40;;;;;;;;;;5102467;28;20043;-62
2021/03/22 17:26:41;;;;;;;0.73;0.73;;;;;;;;;;5097484;28;20024;-62
2021/03/22 17:29:07;;;;;;;1.42;0.90;;;;;;;;;;5099432;28;20009;-63
2021/03/22 17:31:33;;;;;;;0.93;0.73;;;;;;;;;;5099464;28;20631;-62
2021/03/22 17:33:59;;;;;;;0.25;0.25;;;;;;;;;;5088462;28;20026;-63
2021/03/22 17:36:25;;;;;;;0.75;0.75;;;;;;;;;;5103588;28;20028;-62
2021/03/22 17:38:53;;;;;;;7.80;4.78;;;;;;;;;;5088932;28;20046;-63
2021/03/22 17:41:20;;;;;;;1.40;0.88;;;;;;;;;;5092925;28;20474;-63
2021/03/22 17:43:47;;;;;;;1.35;1.13;;;;;;;;;;5096887;28;20032;-63
2021/03/22 17:46:13;;;;;;;2.95;2.13;;;;;;;;;;5088425;28;20135;-63
2021/03/22 17:48:40;;;;;;;0.75;0.75;;;;;;;;;;5102542;28;20023;-62
2021/03/22 17:51:07;;;;;;;8.93;3.17;;;;;;;;;;5100506;28;20032;-62
2021/03/22 17:53:34;;;;;;;1.27;1.23;;;;;;;;;;5098069;28;20028;-62
2021/03/22 17:56:01;;;;;;;4.15;3.33;;;;;;;;;;5101900;28;20388;-62
2021/03/22 17:58:27;;;;;;;4.90;2.70;;;;;;;;;;5105975;28;20071;-62
2021/03/22 18:00:53;;;;;;;2.45;1.73;;;;;;;;;;5098852;28;20034;-61
2021/03/22 18:03:19;;;;;;;3.03;2.83;;;;;;;;;;5092761;28;20036;-62
2021/03/22 18:05:46;;;;;;;7.32;3.67;;;;;;;;;;5095278;28;20024;-62
2021/03/22 18:08:12;;;;;;;2.70;2.50;;;;;;;;;;5100176;28;20019;-62
2021/03/22 18:10:41;;;;;;;3.22;2.47;;;;;;;;;;5104724;28;20032;-62
2021/03/22 18:13:08;;;;;;;6.93;4.00;;;;;;;;;;5106578;28;20462;-62
2021/03/22 18:15:34;;;;;;;0.10;0.10;;;;;;;;;;5091326;28;20761;-62
2021/03/22 18:18:00;;;;;;;0.10;0.10;;;;;;;;;;5110508;28;20490;-62
2021/03/22 18:20:28;;;;;;;5.32;2.55;;;;;;;;;;5106184;28;20035;-62
2021/03/22 18:22:54;;;;;;;8.05;1.85;;;;;;;;;;5107281;28;20102;-63
2021/03/22 18:25:21;;;;;;;0.85;0.85;;;;;;;;;;5106938;28;20051;-62
2021/03/22 18:27:47;;;;;;;2.03;1.85;;;;;;;;;;5108829;28;20016;-62
2021/03/22 18:30:15;;;;;;;4.47;1.88;;;;;;;;;;5107035;28;20604;-62
2021/03/22 18:32:43;;;;;;;0.85;0.82;;;;;;;;;;5109664;28;20106;-62
2021/03/22 18:35:10;;;;;;;1.08;1.02;;;;;;;;;;5088717;28;20031;-62
2021/03/22 18:37:36;;;;;;;7.30;0.85;;;;;;;;;;5107495;28;20028;-62
2021/03/22 18:40:03;;;;;;;1.00;0.85;;;;;;;;;;5106862;28;20039;-62
2021/03/22 18:42:30;;;;;;;0.40;0.40;;;;;;;;;;5108523;28;20028;-62
2021/03/22 18:44:56;;;;;;;1.65;1.33;;;;;;;;;;5102847;28;20042;-62
2021/03/22 18:47:22;;;;;;;2.85;2.10;;;;;;;;;;5106551;28;20094;-62
2021/03/22 18:49:48;;;;;;;0.17;0.17;;;;;;;;;;5105632;28;20023;-62
2021/03/22 18:52:14;;;;;;;1.85;0.63;;;;;;;;;;5103274;28;20099;-62
2021/03/22 18:54:40;;;;;;;1.20;1.20;;;;;;;;;;5104209;28;20027;-62
2021/03/22 18:57:07;;;;;;;5.15;2.45;;;;;;;;;;5109106;28;20095;-62
2021/03/22 18:59:34;;;;;;;4.18;0.50;;;;;;;;;;5109352;28;20047;-62
2021/03/22 19:02:01;;;;;;;1.38;1.27;;;;;;;;;;5111235;28;20027;-62
2021/03/22 19:04:27;;;;;;;0.10;0.10;;;;;;;;;;5110646;28;20045;-67
2021/03/22 19:06:53;;;;;;;0.10;0.10;;;;;;;;;;5111876;28;20489;-62
2021/03/22 19:09:19;;;;;;;4.50;3.75;;;;;;;;;;5109536;28;20485;-62
2021/03/22 19:11:45;;;;;;;0.43;0.43;;;;;;;;;;5113201;28;20110;-61
2021/03/22 19:14:11;;;;;;;0.32;0.32;;;;;;;;;;5110610;28;20026;-62
2021/03/22 19:16:37;;;;;;;0.10;0.10;;;;;;;;;;5103233;27;20051;-61
2021/03/22 19:19:04;;;;;;;1.23;1.17;;;;;;;;;;5105888;28;20043;-61
2021/03/22 19:21:32;;;;;;;3.60;3.08;;;;;;;;;;5108826;28;20027;-61
2021/03/22 19:24:04;;;;;;;0.15;0.15;;;;;;;;;;5107519;28;20027;-60
2021/03/22 19:26:30;;;;;;;0.10;0.10;;;;;;;;;;5108079;28;20837;-62
2021/03/22 19:28:57;;;;;;;0.10;0.10;;;;;;;;;;5102564;28;20107;-63
2021/03/22 19:31:26;;;;;;;0.68;0.68;;;;;;;;;;5106957;28;20588;-62
2021/03/22 19:33:52;;;;;;;0.10;0.10;;;;;;;;;;5106031;28;20030;-62
2021/03/22 19:36:18;;;;;;;0.10;0.10;;;;;;;;;;5106269;28;20069;-61
2021/03/22 19:38:44;;;;;;;0.50;0.50;;;;;;;;;;5110331;28;20032;-61
2021/03/22 19:41:10;;;;;;;0.10;0.10;;;;;;;;;;5109673;28;20059;-61
2021/03/22 19:43:37;;;;;;;0.00;0.00;;;;;;;;;;5108733;28;20389;-61
2021/03/22 19:46:03;;;;;;;0.38;0.38;;;;;;;;;;5107584;28;20035;-62
2021/03/22 19:48:29;;;;;;;0.10;0.10;;;;;;;;;;5109426;28;20470;-62
2021/03/22 19:50:55;;;;;;;0.20;0.20;;;;;;;;;;5110775;28;20051;-61
2021/03/22 19:53:21;;;;;;;0.10;0.10;;;;;;;;;;5103919;28;20030;-61
2021/03/22 19:55:48;;;;;;;0.10;0.10;;;;;;;;;;5109564;28;20492;-61
2021/03/22 19:58:14;;;;;;;0.10;0.10;;;;;;;;;;5107051;28;20030;-61
2021/03/22 20:00:40;;;;;;;0.10;0.10;;;;;;;;;;5108723;28;20035;-61
2021/03/22 20:03:06;;;;;;;0.03;0.03;;;;;;;;;;5104949;28;20032;-60
2021/03/22 20:05:34;;;;;;;0.13;0.13;;;;;;;;;;5098353;28;20493;-63
2021/03/22 20:08:01;;;;;;;0.30;0.30;;;;;;;;;;5106003;28;20453;-62
2021/03/22 20:10:31;;;;;;;0.10;0.10;;;;;;;;;;5107125;28;20141;-61
2021/03/22 20:12:57;;;;;;;0.10;0.10;;;;;;;;;;5107543;28;20070;-61
2021/03/22 20:15:25;;;;;;;0.10;0.10;;;;;;;;;;5107844;28;20019;-60
2021/03/22 20:17:51;;;;;;;0.10;0.10;;;;;;;;;;5109368;28;20382;-63
2021/03/22 20:20:22;;;;;;;0.10;0.10;;;;;;;;;;5106670;28;20024;-61
2021/03/22 20:22:49;;;;;;;0.10;0.10;;;;;;;;;;5108189;28;20060;-63
2021/03/22 20:25:17;;;;;;;13.50;2.72;;;;;;;;;;5108549;28;20125;-61
2021/03/22 20:27:44;;;;;;;0.00;0.00;;;;;;;;;;5108784;28;20496;-64
2021/03/22 20:30:11;;;;;;;0.10;0.10;;;;;;;;;;5109751;28;20024;-63
2021/03/22 20:32:37;;;;;;;0.10;0.10;;;;;;;;;;5108698;27;20020;-62
2021/03/22 20:35:03;;;;;;;0.98;0.95;;;;;;;;;;5107398;28;20027;-63
2021/03/22 20:37:29;;;;;;;0.10;0.10;;;;;;;;;;5108030;28;20036;-62
2021/03/22 20:39:56;;;;;;;0.10;0.10;;;;;;;;;;5106693;28;20034;-62
2021/03/22 20:42:22;;;;;;;0.10;0.10;;;;;;;;;;5108169;28;20024;-62
2021/03/22 20:44:48;;;;;;;0.10;0.10;;;;;;;;;;5109842;28;20098;-63
2021/03/22 20:47:14;;;;;;;0.20;0.20;;;;;;;;;;5104575;28;20102;-61
2021/03/22 20:49:40;;;;;;;0.10;0.10;;;;;;;;;;5107742;28;20473;-62
2021/03/22 20:52:06;;;;;;;0.10;0.10;;;;;;;;;;5108529;28;20026;-62
2021/03/22 20:54:33;;;;;;;0.10;0.10;;;;;;;;;;5108003;28;22784;-62
2021/03/22 20:56:59;;;;;;;0.10;0.10;;;;;;;;;;5107821;28;20073;-62